< < Back
Terminal Aerodrome Forecast


Current Version              Previous Versions:   1  2  3  4  5  6  7  8  9  

Terminal Aerodrome Forecast

131
FTUS42 KCHS 231721
TAFCHS
TAF
KCHS 231721Z 2318/2418 25011KT P6SM FEW050
     FM232000 22012G18KT P6SM FEW250
     FM240000 22008KT P6SM FEW250
     FM241400 26010KT P6SM SCT050=



Latest METAR

733
SAUS80 KWBC 242000
MTRCHS
METAR KCHS 241956Z 24011KT 10SM FEW050 FEW150 SCT250 35/20 A2998 RMK AO2
SLP152 T03500200


USA.gov is the U.S. government's official web portal to all federal, state and local government web resources and services.